Time;durP1;ratioP1;P1;durP2;ratioP2;P2;SDS_P1;SDS_P2;PMS_P1;PMS_P2;Temp;Humidity;BMP_temperature;BMP_pressure;BME280_temperature;BME280_humidity;BME280_pressure;Samples;Min_cycle;Max_cycle;Signal;HPM_P1;HPM_P2
2022/05/11 00:01:15;;;;;;;2.55;1.30;;;24.70;46.80;;;;;;5061572;28;20035;-44
2022/05/11 00:03:41;;;;;;;2.40;1.52;;;24.80;46.70;;;;;;5064609;28;20029;-44
2022/05/11 00:06:07;;;;;;;3.70;1.58;;;24.80;46.70;;;;;;5064843;28;20087;-45
2022/05/11 00:08:33;;;;;;;2.60;1.38;;;24.70;46.90;;;;;;5064628;28;20016;-44
2022/05/11 00:10:59;;;;;;;2.95;1.77;;;24.70;46.80;;;;;;5063477;28;20048;-44
2022/05/11 00:13:25;;;;;;;3.47;1.25;;;24.70;46.90;;;;;;5064563;28;20036;-44
2022/05/11 00:15:51;;;;;;;2.40;1.40;;;24.70;46.80;;;;;;5064516;28;20055;-43
2022/05/11 00:18:17;;;;;;;2.67;1.45;;;24.70;46.80;;;;;;5062338;28;20056;-45
2022/05/11 00:20:42;;;;;;;3.00;1.30;;;24.70;46.80;;;;;;5064078;28;20060;-45
2022/05/11 00:23:08;;;;;;;4.03;1.60;;;24.70;46.80;;;;;;5064845;28;20047;-43
2022/05/11 00:25:34;;;;;;;2.60;1.52;;;24.70;46.70;;;;;;5064229;28;20028;-44
2022/05/11 00:28:00;;;;;;;2.72;1.40;;;24.70;46.60;;;;;;5064410;28;20029;-44
2022/05/11 00:30:27;;;;;;;3.03;1.50;;;24.70;46.80;;;;;;5062910;28;20029;-45
2022/05/11 00:32:56;;;;;;;2.70;1.45;;;24.70;46.70;;;;;;5064287;28;20466;-44
2022/05/11 00:35:23;;;;;;;3.33;2.05;;;24.70;46.80;;;;;;5062665;28;20055;-44
2022/05/11 00:37:49;;;;;;;2.90;1.65;;;24.70;46.70;;;;;;5063998;28;20024;-44
2022/05/11 00:40:17;;;;;;;2.13;1.20;;;24.70;46.70;;;;;;5064073;28;20140;-44
2022/05/11 00:42:43;;;;;;;2.90;1.60;;;24.60;46.70;;;;;;5063000;28;20583;-44
2022/05/11 00:45:09;;;;;;;2.03;1.23;;;24.60;46.60;;;;;;5064339;28;20020;-44
2022/05/11 00:47:42;;;;;;;3.78;2.30;;;24.60;46.60;;;;;;5063960;28;20013;-43
2022/05/11 00:50:09;;;;;;;;;;;24.60;46.50;;;;;;5063605;28;20496;-44
2022/05/11 00:52:41;;;;;;;2.38;1.27;;;24.60;46.60;;;;;;5063747;28;20655;-44
2022/05/11 00:55:14;;;;;;;2.90;1.33;;;24.60;46.50;;;;;;5064184;28;20712;-44
2022/05/11 00:57:42;;;;;;;2.47;1.50;;;24.60;46.50;;;;;;5063094;28;20528;-44
2022/05/11 01:00:13;;;;;;;2.38;1.40;;;24.60;46.70;;;;;;5063036;28;20587;-44
2022/05/11 01:02:44;;;;;;;2.25;1.40;;;24.60;46.70;;;;;;5064047;28;20125;-44
2022/05/11 01:05:10;;;;;;;2.15;1.35;;;24.60;46.70;;;;;;5062692;28;20032;-44
2022/05/11 01:07:37;;;;;;;2.75;1.55;;;24.60;46.60;;;;;;5063508;28;20029;-43
2022/05/11 01:10:08;;;;;;;2.72;1.48;;;24.60;46.70;;;;;;5063098;28;20032;-44
2022/05/11 01:12:45;;;;;;;1.88;1.20;;;24.60;46.70;;;;;;5063339;28;20116;-44
2022/05/11 01:15:14;;;;;;;2.80;1.55;;;24.60;46.60;;;;;;5063143;28;20554;-44
2022/05/11 01:17:40;;;;;;;2.95;1.77;;;24.60;46.50;;;;;;5062491;28;20636;-44
2022/05/11 01:20:15;;;;;;;2.20;1.30;;;24.60;46.50;;;;;;5061910;28;20481;-45
2022/05/11 01:23:07;;;;;;;2.47;1.30;;;24.60;46.50;;;;;;5062400;28;20371;-44
2022/05/11 01:25:33;;;;;;;2.42;1.20;;;24.50;46.60;;;;;;5063618;28;20680;-44
2022/05/11 01:28:11;;;;;;;2.85;1.50;;;24.50;46.50;;;;;;5063527;28;20020;-46
2022/05/11 01:30:52;;;;;;;1.90;1.17;;;24.50;46.50;;;;;;5062305;28;20405;-44
2022/05/11 01:33:22;;;;;;;1.95;1.20;;;24.50;46.50;;;;;;5061711;28;20054;-45
2022/05/11 01:36:20;;;;;;;2.75;1.35;;;24.50;46.40;;;;;;5062632;28;20140;-45
2022/05/11 01:38:51;;;;;;;2.80;1.50;;;24.60;46.60;;;;;;5062919;28;20039;-44
2022/05/11 01:41:39;;;;;;;2.60;1.50;;;24.50;46.60;;;;;;5062389;28;20061;-44
2022/05/11 01:44:11;;;;;;;2.42;1.25;;;24.50;46.50;;;;;;5061896;28;20044;-49
2022/05/11 01:46:38;;;;;;;2.77;1.47;;;24.50;46.50;;;;;;5062188;28;20519;-45
2022/05/11 01:49:05;;;;;;;2.30;1.30;;;24.50;46.60;;;;;;5062199;28;20286;-44
2022/05/11 01:51:31;;;;;;;2.60;1.45;;;24.50;46.60;;;;;;5063107;28;20552;-45
2022/05/11 01:53:57;;;;;;;2.65;1.48;;;24.50;46.60;;;;;;5060713;28;20032;-44
2022/05/11 01:56:25;;;;;;;2.60;1.30;;;24.50;46.60;;;;;;5063107;28;20029;-44
2022/05/11 01:58:52;;;;;;;2.25;1.30;;;24.50;46.60;;;;;;5062219;28;20025;-44
2022/05/11 02:01:22;;;;;;;3.40;1.80;;;24.50;47.10;;;;;;5059559;28;20115;-44
2022/05/11 02:03:48;;;;;;;2.80;1.52;;;24.50;46.40;;;;;;5062886;28;20693;-44
2022/05/11 02:08:59;;;;;;;2.63;1.45;;;24.50;46.40;;;;;;5063135;28;20043;-44
2022/05/11 02:11:26;;;;;;;2.72;1.40;;;24.50;46.40;;;;;;5061632;28;20024;-44
2022/05/11 02:13:53;;;;;;;3.25;1.30;;;24.50;46.40;;;;;;5062965;28;20030;-44
2022/05/11 02:16:19;;;;;;;1.98;1.23;;;24.50;46.40;;;;;;5063104;28;20031;-44
2022/05/11 02:18:44;;;;;;;3.10;1.60;;;24.50;46.40;;;;;;5062985;28;20396;-44
2022/05/11 02:21:10;;;;;;;1.95;1.10;;;24.40;46.30;;;;;;5060108;28;20071;-44
2022/05/11 02:23:37;;;;;;;2.22;1.40;;;24.50;46.40;;;;;;5063105;28;20100;-44
2022/05/11 02:26:04;;;;;;;2.72;1.30;;;24.50;46.40;;;;;;5063362;28;20593;-44
2022/05/11 02:28:30;;;;;;;2.17;1.30;;;24.40;46.30;;;;;;5061661;28;20122;-44
2022/05/11 02:30:57;;;;;;;2.35;1.48;;;24.40;46.30;;;;;;5061725;28;20028;-44
2022/05/11 02:33:24;;;;;;;2.35;1.30;;;24.40;46.30;;;;;;5063095;28;20167;-44
2022/05/11 02:35:50;;;;;;;3.53;1.85;;;24.40;46.40;;;;;;5065760;28;20024;-44
2022/05/11 02:38:23;;;;;;;2.45;1.30;;;24.40;46.40;;;;;;5066704;28;20025;-45
2022/05/11 02:40:49;;;;;;;;;;;24.40;46.40;;;;;;5065670;28;20033;-44
2022/05/11 02:43:15;;;;;;;2.17;1.30;;;24.40;46.30;;;;;;5066378;28;19905;-45
2022/05/11 02:45:42;;;;;;;2.50;1.50;;;24.40;46.30;;;;;;5066383;28;20032;-44
2022/05/11 02:48:10;;;;;;;2.78;1.33;;;24.40;46.40;;;;;;5066762;28;20020;-44
2022/05/11 02:50:44;;;;;;;2.72;1.60;;;24.40;46.30;;;;;;5066025;28;20075;-44
2022/05/11 02:53:11;;;;;;;2.60;1.50;;;24.40;46.20;;;;;;5065435;28;20113;-43
2022/05/11 02:55:39;;;;;;;2.70;1.25;;;24.40;46.40;;;;;;5066084;28;20019;-44
2022/05/11 02:58:06;;;;;;;2.85;1.58;;;24.40;46.20;;;;;;5064766;28;20115;-44
2022/05/11 03:00:32;;;;;;;2.42;1.30;;;24.40;46.20;;;;;;5063686;28;20032;-45
2022/05/11 03:03:00;;;;;;;1.85;1.30;;;24.40;46.20;;;;;;5066253;28;20028;-44
2022/05/11 03:05:26;;;;;;;2.40;1.50;;;24.40;46.30;;;;;;5066192;28;20381;-45
2022/05/11 03:07:52;;;;;;;2.20;1.33;;;24.40;46.20;;;;;;5065010;28;20029;-44
2022/05/11 03:10:17;;;;;;;2.38;1.40;;;24.40;46.20;;;;;;5065515;28;20033;-44
2022/05/11 03:12:43;;;;;;;2.63;1.60;;;24.40;46.20;;;;;;5066182;28;20032;-45
2022/05/11 03:15:10;;;;;;;2.03;1.25;;;24.40;46.90;;;;;;5066212;28;20024;-44
2022/05/11 03:17:36;;;;;;;2.35;1.45;;;24.30;46.30;;;;;;5066065;28;20486;-45
2022/05/11 03:20:07;;;;;;;2.22;1.40;;;24.40;46.30;;;;;;5066038;28;20042;-45
2022/05/11 03:22:33;;;;;;;2.78;1.52;;;24.40;46.20;;;;;;5062675;28;20047;-44
2022/05/11 03:24:59;;;;;;;2.47;1.45;;;24.30;46.20;;;;;;5065876;28;20040;-43
2022/05/11 03:27:24;;;;;;;2.15;1.17;;;24.40;46.20;;;;;;5065583;28;20029;-44
2022/05/11 03:29:51;;;;;;;2.80;1.42;;;24.30;46.20;;;;;;5064960;28;20028;-44
2022/05/11 03:35:04;;;;;;;2.28;1.40;;;24.40;46.10;;;;;;5065457;28;20028;-44
2022/05/11 03:37:30;;;;;;;2.55;1.40;;;24.40;46.10;;;;;;5065186;28;20112;-45
2022/05/11 03:39:55;;;;;;;2.45;1.63;;;24.30;46.10;;;;;;5065375;28;20099;-44
2022/05/11 03:42:28;;;;;;;1.65;1.10;;;24.30;46.10;;;;;;5065618;28;20045;-47
2022/05/11 03:44:55;;;;;;;2.90;1.50;;;24.40;46.10;;;;;;5063696;28;20592;-44
2022/05/11 03:47:21;;;;;;;3.25;1.60;;;24.40;46.10;;;;;;5064939;28;20032;-44
2022/05/11 03:49:47;;;;;;;2.55;1.60;;;24.30;46.10;;;;;;5064664;28;20032;-44
2022/05/11 03:52:16;;;;;;;3.20;1.30;;;24.30;46.10;;;;;;5064448;28;20111;-45
2022/05/11 03:54:41;;;;;;;2.50;1.50;;;24.30;46.10;;;;;;5064692;28;20023;-44
2022/05/11 03:57:07;;;;;;;2.45;1.67;;;24.30;46.10;;;;;;5065155;28;20588;-44
2022/05/11 03:59:33;;;;;;;2.63;1.70;;;24.30;46.10;;;;;;5064176;28;20107;-44
2022/05/11 04:01:58;;;;;;;2.85;1.65;;;24.30;46.10;;;;;;5060749;28;20047;-44
2022/05/11 04:04:24;;;;;;;2.15;1.35;;;24.30;46.10;;;;;;5064541;28;20438;-44
2022/05/11 04:06:50;;;;;;;2.28;1.35;;;24.30;46.10;;;;;;5064074;28;20055;-44
2022/05/11 04:09:16;;;;;;;2.00;1.30;;;24.30;46.10;;;;;;5063810;28;20028;-44
2022/05/11 04:11:42;;;;;;;2.63;1.60;;;24.30;46.20;;;;;;5062121;28;20033;-44
2022/05/11 04:14:07;;;;;;;2.67;1.33;;;24.30;46.20;;;;;;5063968;28;20021;-44
2022/05/11 04:16:33;;;;;;;3.60;1.58;;;24.30;46.40;;;;;;5062697;28;20020;-44
2022/05/11 04:18:59;;;;;;;2.78;1.60;;;24.30;46.70;;;;;;5063860;28;20048;-44
2022/05/11 04:21:26;;;;;;;3.97;1.88;;;24.30;46.90;;;;;;5061796;28;20036;-44
2022/05/11 04:23:51;;;;;;;21.85;6.50;;;24.30;47.00;;;;;;5062907;28;20145;-44
2022/05/11 04:26:17;;;;;;;23.20;8.88;;;24.30;47.20;;;;;;5064097;28;20140;-43
2022/05/11 04:28:43;;;;;;;22.75;8.40;;;24.30;47.10;;;;;;5063514;28;20028;-44
2022/05/11 04:31:10;;;;;;;20.98;9.30;;;24.30;47.10;;;;;;5063532;28;20020;-44
2022/05/11 04:33:36;;;;;;;22.90;9.88;;;24.30;47.30;;;;;;5063320;28;20024;-44
2022/05/11 04:36:04;;;;;;;13.73;7.22;;;24.30;47.40;;;;;;5063611;28;20606;-43
2022/05/11 04:38:30;;;;;;;17.77;6.57;;;24.30;47.20;;;;;;5062449;28;20029;-43
2022/05/11 04:40:55;;;;;;;15.30;6.40;;;24.30;47.20;;;;;;5063257;28;20060;-44
2022/05/11 04:43:22;;;;;;;20.15;6.43;;;24.30;47.50;;;;;;5062920;28;20553;-43
2022/05/11 04:45:47;;;;;;;14.82;5.53;;;24.30;48.00;;;;;;5061332;28;20039;-44
2022/05/11 04:48:15;;;;;;;14.43;6.20;;;24.30;48.20;;;;;;5059308;28;20036;-44
2022/05/11 04:50:43;;;;;;;16.90;5.85;;;24.30;48.60;;;;;;5061189;28;20029;-44
2022/05/11 04:53:12;;;;;;;15.45;5.32;;;24.30;48.70;;;;;;5062374;28;20052;-44
2022/05/11 04:55:39;;;;;;;12.68;5.18;;;24.40;48.60;;;;;;5062813;28;20522;-44
2022/05/11 04:58:05;;;;;;;11.35;4.50;;;24.30;48.60;;;;;;5061907;28;20129;-44
2022/05/11 05:00:32;;;;;;;9.75;5.10;;;24.40;48.50;;;;;;5060543;28;20023;-44
2022/05/11 05:03:01;;;;;;;9.10;3.92;;;24.40;48.30;;;;;;5062123;28;20023;-44
2022/05/11 05:05:26;;;;;;;8.43;4.15;;;24.30;48.20;;;;;;5061104;28;20021;-43
2022/05/11 05:07:52;;;;;;;7.68;3.40;;;24.40;48.10;;;;;;5061807;28;20141;-44
2022/05/11 05:10:21;;;;;;;6.07;3.47;;;24.40;48.00;;;;;;5062038;28;20040;-44
2022/05/11 05:12:47;;;;;;;7.78;3.60;;;24.40;47.90;;;;;;5060402;28;20036;-44
2022/05/11 05:15:15;;;;;;;9.07;3.85;;;24.40;47.80;;;;;;5062771;28;20012;-44
2022/05/11 05:17:41;;;;;;;9.27;4.05;;;24.40;47.90;;;;;;5062610;28;20624;-44
2022/05/11 05:20:08;;;;;;;6.38;3.10;;;24.40;47.80;;;;;;5061211;28;20031;-44
2022/05/11 05:22:35;;;;;;;6.43;3.05;;;24.40;47.80;;;;;;5061246;28;20142;-44
2022/05/11 05:25:01;;;;;;;7.60;2.75;;;24.40;47.80;;;;;;5062325;28;20718;-43
2022/05/11 05:27:27;;;;;;;5.97;2.90;;;24.40;47.70;;;;;;5062898;28;20028;-43
2022/05/11 05:32:40;;;;;;;5.30;2.55;;;24.40;47.60;;;;;;5061367;28;20094;-44
2022/05/11 05:35:08;;;;;;;9.93;3.17;;;24.40;47.80;;;;;;5058815;28;20036;-43
2022/05/11 05:37:34;;;;;;;6.35;2.80;;;24.40;48.10;;;;;;5059800;28;20161;-44
2022/05/11 05:40:01;;;;;;;6.53;2.95;;;24.40;48.60;;;;;;5058021;28;20365;-45
2022/05/11 05:42:27;;;;;;;7.90;2.70;;;24.40;48.50;;;;;;5060567;28;20058;-45
2022/05/11 05:44:53;;;;;;;6.80;2.70;;;24.50;49.10;;;;;;5060540;28;20029;-44
2022/05/11 05:47:19;;;;;;;6.13;2.92;;;24.50;49.10;;;;;;5061042;28;20134;-44
2022/05/11 05:49:45;;;;;;;5.80;2.90;;;24.50;49.10;;;;;;5059786;28;21679;-44
2022/05/11 05:52:17;;;;;;;4.65;2.63;;;24.50;49.30;;;;;;5057313;28;20028;-46
2022/05/11 05:54:43;;;;;;;4.67;2.67;;;24.50;49.20;;;;;;5060802;28;20079;-46
2022/05/11 05:57:09;;;;;;;6.03;2.67;;;24.50;48.80;;;;;;5062658;28;20743;-46
2022/05/11 05:59:35;;;;;;;4.22;2.75;;;24.60;48.30;;;;;;5061600;28;20012;-45
2022/05/11 06:02:00;;;;;;;4.80;2.45;;;24.60;47.90;;;;;;5062157;28;20021;-46
2022/05/11 06:04:26;;;;;;;4.80;2.83;;;24.60;47.60;;;;;;5062671;28;20111;-45
2022/05/11 06:06:52;;;;;;;4.80;2.42;;;24.60;47.30;;;;;;5060608;28;20245;-45
2022/05/11 06:09:18;;;;;;;4.88;3.40;;;24.60;47.10;;;;;;5063163;28;20016;-45
2022/05/11 06:11:44;;;;;;;5.05;3.05;;;24.60;47.30;;;;;;5065706;28;20221;-44
2022/05/11 06:14:11;;;;;;;5.28;3.13;;;24.60;46.80;;;;;;5065967;28;20028;-43
2022/05/11 06:16:36;;;;;;;5.03;2.90;;;24.60;46.80;;;;;;5066317;28;20038;-44
2022/05/11 06:19:04;;;;;;;5.90;2.70;;;24.60;46.70;;;;;;5065979;28;20648;-43
2022/05/11 06:21:29;;;;;;;3.95;2.67;;;24.60;46.70;;;;;;5065473;28;20056;-43
2022/05/11 06:23:55;;;;;;;4.13;2.85;;;24.60;46.50;;;;;;5063670;28;20181;-43
2022/05/11 06:26:21;;;;;;;8.48;3.60;;;24.60;46.70;;;;;;5065325;28;20142;-43
2022/05/11 06:28:47;;;;;;;8.93;4.00;;;24.60;46.80;;;;;;5062017;28;20113;-42
2022/05/11 06:31:14;;;;;;;9.95;4.30;;;24.60;47.00;;;;;;5065266;28;20032;-42
2022/05/11 06:33:40;;;;;;;7.95;4.03;;;24.60;47.00;;;;;;5065012;28;20388;-42
2022/05/11 06:36:07;;;;;;;8.77;5.28;;;24.60;46.90;;;;;;5064616;28;20020;-43
2022/05/11 06:38:34;;;;;;;8.63;4.88;;;24.70;46.70;;;;;;5062308;28;20109;-44
2022/05/11 06:41:18;;;;;;;10.07;4.45;;;24.70;46.90;;;;;;5065375;28;20551;-44
2022/05/11 06:43:44;;;;;;;11.00;4.65;;;24.70;46.80;;;;;;5063280;28;20039;-43
2022/05/11 06:46:10;;;;;;;11.05;4.82;;;24.70;47.00;;;;;;5065505;28;20515;-44
2022/05/11 06:48:36;;;;;;;10.45;3.80;;;24.70;47.10;;;;;;5065547;28;20552;-44
2022/05/11 06:51:02;;;;;;;10.05;4.40;;;24.70;47.10;;;;;;5065645;28;20020;-44
2022/05/11 06:59:16;;;;;;;7.47;4.47;;;24.70;47.10;;;;;;5064690;28;20021;-43
2022/05/11 06:59:20;;;;;;;6.70;3.50;;;24.70;47.50;;;;;;5065511;28;20046;-42
2022/05/11 07:01:47;;;;;;;9.48;4.57;;;24.70;47.40;;;;;;5065057;28;20031;-43
2022/05/11 07:04:13;;;;;;;8.52;3.92;;;24.70;47.60;;;;;;5065340;28;20031;-42
2022/05/11 07:06:38;;;;;;;6.53;4.05;;;24.80;47.70;;;;;;5065179;28;20040;-43
2022/05/11 07:09:04;;;;;;;8.63;4.00;;;24.70;47.50;;;;;;5049020;28;20107;-43
2022/05/11 07:14:14;;;;;;;7.25;3.50;;;24.80;47.50;;;;;;5049917;28;20080;-43
2022/05/11 07:16:39;;;;;;;7.22;3.47;;;24.80;47.60;;;;;;5065024;28;20480;-42
2022/05/11 07:19:06;;;;;;;8.25;3.97;;;24.70;47.50;;;;;;5058835;28;20715;-43
2022/05/11 07:21:32;;;;;;;7.15;3.83;;;24.80;47.50;;;;;;5055189;28;20047;-43
2022/05/11 07:24:01;;;;;;;6.50;3.63;;;24.80;47.60;;;;;;5059368;28;20570;-43
2022/05/11 07:26:27;;;;;;;6.05;3.20;;;24.80;47.70;;;;;;5047671;28;20036;-43
2022/05/11 07:28:53;;;;;;;9.35;3.97;;;24.80;47.60;;;;;;5051340;28;20343;-43
2022/05/11 07:31:18;;;;;;;6.40;3.83;;;24.80;47.70;;;;;;5064369;28;20579;-43
2022/05/11 07:33:44;;;;;;;7.90;3.85;;;24.80;47.60;;;;;;5065030;28;20496;-43
2022/05/11 07:36:10;;;;;;;8.40;4.38;;;24.80;47.80;;;;;;5065366;28;20100;-42
2022/05/11 07:38:38;;;;;;;8.80;3.88;;;24.80;47.60;;;;;;5047459;28;20033;-42
2022/05/11 07:41:07;;;;;;;7.53;3.58;;;24.80;47.50;;;;;;5045278;28;20100;-43
2022/05/11 07:43:33;;;;;;;9.73;4.43;;;24.90;48.30;;;;;;5045560;28;20058;-44
2022/05/11 07:45:59;;;;;;;8.18;3.85;;;24.90;47.60;;;;;;5044950;28;20040;-42
2022/05/11 07:48:25;;;;;;;9.10;4.28;;;24.90;47.10;;;;;;5044713;28;20036;-44
2022/05/11 07:50:50;;;;;;;10.05;4.50;;;24.90;47.40;;;;;;5044553;28;20104;-43
2022/05/11 07:53:17;;;;;;;8.18;4.28;;;24.90;47.50;;;;;;5060470;28;20486;-43
2022/05/11 07:55:43;;;;;;;9.52;4.25;;;24.90;47.50;;;;;;5065440;28;20049;-43
2022/05/11 08:00:58;;;;;;;11.23;4.60;;;24.90;47.70;;;;;;5064341;28;20615;-43
2022/05/11 08:03:25;;;;;;;9.80;4.40;;;25.00;48.10;;;;;;5065486;28;20546;-43
2022/05/11 08:05:51;;;;;;;10.63;4.88;;;24.90;48.60;;;;;;5065592;28;20036;-43
2022/05/11 08:08:17;;;;;;;9.77;4.72;;;24.90;48.70;;;;;;5054988;28;20090;-43
2022/05/11 08:10:45;;;;;;;12.07;4.10;;;24.90;48.80;;;;;;5044943;28;20369;-43
2022/05/11 08:13:11;;;;;;;9.43;4.45;;;25.00;48.90;;;;;;5044882;28;20025;-43
2022/05/11 08:15:43;;;;;;;10.63;4.93;;;25.00;48.90;;;;;;5045250;28;20096;-43
2022/05/11 08:18:09;;;;;;;10.45;4.35;;;25.00;48.80;;;;;;5045021;28;20058;-43
2022/05/11 08:20:38;;;;;;;7.20;4.20;;;25.00;48.80;;;;;;5044749;28;20029;-44
2022/05/11 08:23:04;;;;;;;10.30;4.00;;;25.00;48.80;;;;;;5057454;28;20028;-43
2022/05/11 08:25:34;;;;;;;7.43;3.95;;;25.00;48.80;;;;;;5065075;28;20029;-42
2022/05/11 08:28:00;;;;;;;9.48;4.20;;;25.00;48.70;;;;;;5054904;28;20028;-44
2022/05/11 08:33:21;;;;;;;10.75;4.90;;;25.00;48.50;;;;;;5043889;28;20564;-43
2022/05/11 08:35:49;;;;;;;8.98;4.47;;;25.00;48.50;;;;;;5044194;28;20032;-43
2022/05/11 08:38:16;;;;;;;7.13;4.03;;;25.00;48.60;;;;;;5058562;28;20277;-43
2022/05/11 08:41:05;;;;;;;7.90;4.20;;;25.00;48.50;;;;;;5063906;28;20033;-45
2022/05/11 08:43:32;;;;;;;6.28;3.28;;;25.00;48.20;;;;;;5061761;28;20496;-45
2022/05/11 08:46:09;;;;;;;11.68;3.80;;;25.00;48.10;;;;;;5064037;28;20060;-45
2022/05/11 08:49:01;;;;;;;7.60;3.72;;;25.00;48.10;;;;;;5062214;28;20032;-44
2022/05/11 08:51:30;;;;;;;10.73;4.55;;;25.00;48.00;;;;;;5063340;28;20021;-44
2022/05/11 08:54:34;;;;;;;7.75;4.18;;;25.00;47.80;;;;;;5043413;28;20027;-44
2022/05/11 08:57:05;;;;;;;10.55;4.30;;;25.00;47.60;;;;;;5042228;28;20029;-44
2022/05/11 08:59:32;;;;;;;7.57;3.88;;;25.00;47.80;;;;;;5043154;28;20578;-44
2022/05/11 09:02:23;;;;;;;6.70;4.05;;;25.10;47.80;;;;;;5043621;28;20029;-44
2022/05/11 09:04:59;;;;;;;8.07;3.78;;;25.10;47.90;;;;;;5043642;28;20037;-43
2022/05/11 09:07:27;;;;;;;8.35;3.75;;;25.10;48.20;;;;;;5043088;28;20040;-44
2022/05/11 09:09:54;;;;;;;6.75;4.05;;;25.10;48.50;;;;;;5043228;28;20052;-43
2022/05/11 09:12:21;;;;;;;6.53;3.60;;;25.10;48.60;;;;;;5043294;28;20412;-44
2022/05/11 09:14:51;;;;;;;7.75;3.80;;;25.10;49.10;;;;;;5043968;28;20024;-44
2022/05/11 09:17:32;;;;;;;6.93;3.30;;;25.10;49.40;;;;;;5044042;28;20025;-43
2022/05/11 09:20:01;;;;;;;8.18;3.90;;;25.10;49.60;;;;;;5043215;28;20063;-43
2022/05/11 09:22:27;;;;;;;7.03;3.40;;;25.10;49.50;;;;;;5048941;28;20121;-44
2022/05/11 09:24:56;;;;;;;8.15;3.47;;;25.10;49.50;;;;;;5063376;28;20029;-44
2022/05/11 09:27:25;;;;;;;8.48;3.70;;;25.20;49.40;;;;;;5056058;28;20029;-44
2022/05/11 09:30:01;;;;;;;6.55;3.45;;;25.20;49.30;;;;;;5043306;28;20021;-43
2022/05/11 09:32:39;;;;;;;7.38;3.65;;;25.20;49.20;;;;;;5043371;28;20672;-43
2022/05/11 09:35:35;;;;;;;7.20;3.60;;;25.20;49.20;;;;;;5042810;28;20881;-44
2022/05/11 09:38:25;;;;;;;6.47;3.85;;;25.10;49.20;;;;;;5057066;28;20640;-44
2022/05/11 09:41:01;;;;;;;9.07;4.10;;;25.10;48.90;;;;;;5063046;28;20025;-43
2022/05/11 09:43:34;;;;;;;10.27;4.45;;;25.20;49.40;;;;;;5050168;28;20294;-44
2022/05/11 09:46:26;;;;;;;7.03;3.92;;;25.10;49.30;;;;;;5047143;28;20021;-43
2022/05/11 09:48:57;;;;;;;9.40;4.20;;;25.10;48.90;;;;;;5046744;28;20127;-44
2022/05/11 09:51:33;;;;;;;9.25;4.30;;;25.20;49.30;;;;;;5046599;28;20505;-44
2022/05/11 09:54:15;;;;;;;10.75;4.22;;;25.20;49.10;;;;;;5047324;28;20098;-44
2022/05/11 09:56:50;;;;;;;10.65;4.05;;;25.10;49.30;;;;;;5047192;28;20520;-44
2022/05/11 09:59:30;;;;;;;13.63;5.25;;;25.20;49.30;;;;;;5046776;28;20036;-44
2022/05/11 10:02:35;;;;;;;501.45;389.77;;;25.20;49.00;;;;;;5045950;28;20742;-44
2022/05/11 10:05:03;;;;;;;893.97;669.05;;;25.20;49.00;;;;;;5046455;28;20102;-44
2022/05/11 10:07:36;;;;;;;1169.22;796.90;;;25.20;49.20;;;;;;5052679;28;20388;-44
2022/05/11 10:10:12;;;;;;;1232.10;824.88;;;25.20;49.50;;;;;;5066558;28;20044;-44
2022/05/11 10:12:41;;;;;;;1223.28;823.83;;;25.20;49.60;;;;;;5065680;28;20121;-43
2022/05/11 10:23:48;;;;;;;913.50;671.53;;;25.20;47.00;;;;;;5061260;28;20447;-44
2022/05/11 10:26:23;;;;;;;855.55;626.35;;;25.20;49.30;;;;;;5049312;28;20627;-44
2022/05/11 10:28:54;;;;;;;780.03;583.15;;;25.20;50.20;;;;;;5046386;28;20025;-43
2022/05/11 10:31:19;;;;;;;758.42;565.75;;;25.20;50.20;;;;;;5045548;28;20033;-44
2022/05/11 10:34:12;;;;;;;721.38;537.70;;;25.30;50.00;;;;;;5046456;28;20530;-44
2022/05/11 10:36:50;;;;;;;;;;;25.30;49.40;;;;;;5046734;28;20108;-43
2022/05/11 10:39:27;;;;;;;625.83;451.63;;;25.30;49.50;;;;;;5046734;28;20032;-44
2022/05/11 10:41:53;;;;;;;520.70;358.60;;;25.30;49.90;;;;;;5045383;28;20055;-43
2022/05/11 10:44:47;;;;;;;459.35;316.55;;;25.30;50.80;;;;;;5044742;28;20037;-47
2022/05/11 10:47:12;;;;;;;;;;;25.30;51.10;;;;;;5046535;28;20037;-48
2022/05/11 10:49:59;;;;;;;442.10;291.52;;;25.30;50.60;;;;;;5052950;28;19912;-48
2022/05/11 10:52:31;;;;;;;427.38;280.20;;;25.20;51.00;;;;;;5064204;28;20044;-47
2022/05/11 10:55:16;;;;;;;271.95;167.75;;;25.20;49.40;;;;;;5063222;28;20031;-49
2022/05/11 10:58:21;;;;;;;137.73;85.22;;;25.30;44.50;;;;;;5061578;28;20024;-49
2022/05/11 11:01:00;;;;;;;67.18;40.05;;;25.20;42.20;;;;;;5058768;28;20032;-50
2022/05/11 11:03:34;;;;;;;41.55;25.92;;;25.20;37.90;;;;;;5063165;28;20017;-49
2022/05/11 11:09:26;;;;;;;17.88;11.57;;;25.20;37.40;;;;;;5064123;28;20104;-48
2022/05/11 11:11:55;;;;;;;11.48;7.65;;;25.20;37.80;;;;;;5063879;28;20039;-49
2022/05/11 11:14:30;;;;;;;17.83;12.48;;;25.20;36.80;;;;;;5064141;28;20786;-48
2022/05/11 11:16:56;;;;;;;13.98;8.85;;;25.20;37.90;;;;;;5062838;28;20103;-50
2022/05/11 11:19:22;;;;;;;11.18;6.57;;;25.20;35.50;;;;;;5064315;28;20519;-49
2022/05/11 11:21:48;;;;;;;11.88;7.55;;;25.20;36.20;;;;;;5064385;28;20028;-50
2022/05/11 11:24:22;;;;;;;18.88;12.75;;;25.30;37.70;;;;;;5062844;28;20584;-49
2022/05/11 11:27:06;;;;;;;21.15;14.00;;;25.20;37.90;;;;;;5063376;28;20103;-50
2022/05/11 11:29:58;;;;;;;17.60;12.15;;;25.30;37.90;;;;;;5063711;28;20551;-49
2022/05/11 11:32:24;;;;;;;13.02;8.57;;;25.30;36.10;;;;;;5061840;28;20024;-50
2022/05/11 11:35:11;;;;;;;13.05;8.60;;;25.30;36.10;;;;;;5063916;28;20025;-48
2022/05/11 11:37:41;;;;;;;16.42;10.35;;;25.30;35.80;;;;;;5062530;28;20067;-49
2022/05/11 11:40:13;;;;;;;20.52;13.00;;;25.30;36.20;;;;;;5064546;28;20029;-50
2022/05/11 11:42:40;;;;;;;14.70;9.07;;;25.30;36.30;;;;;;5064070;28;20021;-50
2022/05/11 11:45:26;;;;;;;17.17;11.27;;;25.40;36.10;;;;;;5061826;28;20016;-49
2022/05/11 11:48:00;;;;;;;13.95;9.32;;;25.40;36.00;;;;;;5063339;28;20496;-49
2022/05/11 11:50:59;;;;;;;14.60;9.27;;;25.40;36.10;;;;;;5063192;28;20724;-47
2022/05/11 11:53:56;;;;;;;15.13;9.60;;;25.40;35.80;;;;;;5062067;28;20527;-49
2022/05/11 11:56:24;;;;;;;6.97;4.30;;;25.50;35.40;;;;;;5063377;28;20044;-49
2022/05/11 11:59:11;;;;;;;5.55;3.70;;;25.50;35.00;;;;;;5060651;28;20035;-48
2022/05/11 12:01:46;;;;;;;14.38;9.85;;;25.50;34.70;;;;;;5063236;28;20020;-48
2022/05/11 12:04:22;;;;;;;10.50;6.65;;;25.60;36.10;;;;;;5062758;28;20028;-50
2022/05/11 12:15:30;;;;;;;6.22;3.70;;;25.70;35.40;;;;;;5060148;28;20048;-48
2022/05/11 12:17:56;;;;;;;7.15;4.72;;;25.70;35.50;;;;;;5060286;28;20071;-50
2022/05/11 12:20:22;;;;;;;6.75;3.80;;;25.80;35.60;;;;;;5060674;28;20044;-51
2022/05/11 12:22:52;;;;;;;4.70;3.03;;;25.80;34.30;;;;;;5060084;28;20063;-47
2022/05/11 12:25:26;;;;;;;4.60;3.15;;;25.80;32.40;;;;;;5063853;28;20042;-49
2022/05/11 12:27:53;;;;;;;4.22;2.80;;;25.80;32.70;;;;;;5061786;28;20435;-48
2022/05/11 12:30:39;;;;;;;4.82;3.35;;;25.90;33.30;;;;;;5063205;28;20692;-47
2022/05/11 12:33:06;;;;;;;5.40;3.35;;;25.90;34.90;;;;;;5062601;28;20090;-49
2022/05/11 12:35:35;;;;;;;5.53;3.70;;;25.90;34.90;;;;;;5061977;28;20025;-49
2022/05/11 12:38:07;;;;;;;7.07;3.65;;;26.00;35.60;;;;;;5062368;28;20078;-48
2022/05/11 12:40:42;;;;;;;4.73;3.00;;;26.00;34.70;;;;;;5062237;28;20099;-50
2022/05/11 12:43:15;;;;;;;5.82;3.88;;;26.00;34.50;;;;;;5061918;28;20669;-47
2022/05/11 12:45:45;;;;;;;4.80;3.05;;;26.00;34.20;;;;;;5061872;28;20032;-49
2022/05/11 12:48:22;;;;;;;4.93;3.20;;;26.10;33.90;;;;;;5062738;28;20012;-48
2022/05/11 12:51:15;;;;;;;4.40;2.92;;;26.10;34.00;;;;;;5059684;28;20689;-50
2022/05/11 12:53:56;;;;;;;4.57;3.03;;;26.10;33.80;;;;;;5057087;28;20502;-48
2022/05/11 12:56:31;;;;;;;4.28;2.97;;;26.10;35.00;;;;;;5061556;28;20458;-48
2022/05/11 12:59:16;;;;;;;3.05;2.15;;;26.20;32.70;;;;;;5062001;28;20012;-48
2022/05/11 13:01:41;;;;;;;3.70;2.40;;;26.30;32.50;;;;;;5061339;28;20024;-49
2022/05/11 13:04:21;;;;;;;3.65;2.45;;;26.30;33.50;;;;;;5062631;28;20028;-45
2022/05/11 13:06:52;;;;;;;5.13;2.72;;;26.40;33.00;;;;;;5062629;28;20034;-47
2022/05/11 13:09:20;;;;;;;4.47;3.00;;;26.40;33.00;;;;;;5061003;28;20094;-47
2022/05/11 13:11:47;;;;;;;4.55;3.17;;;26.40;35.80;;;;;;5063583;28;20044;-49
2022/05/11 13:14:38;;;;;;;5.10;3.15;;;26.40;33.70;;;;;;5062975;28;20441;-47
2022/05/11 13:17:06;;;;;;;3.50;2.35;;;26.50;33.50;;;;;;5063040;28;20032;-47
2022/05/11 13:19:38;;;;;;;4.65;2.60;;;26.50;32.90;;;;;;5063067;28;20115;-48
2022/05/11 13:22:19;;;;;;;4.68;2.70;;;26.50;31.80;;;;;;5063267;28;20029;-46
2022/05/11 13:24:50;;;;;;;3.78;2.58;;;26.60;32.00;;;;;;5043769;28;20029;-50
2022/05/11 13:27:37;;;;;;;3.80;2.25;;;26.60;32.70;;;;;;5043758;28;20107;-46
2022/05/11 13:30:32;;;;;;;4.65;2.83;;;26.70;33.90;;;;;;5043725;28;20032;-48
2022/05/11 13:33:01;;;;;;;6.22;3.20;;;26.70;35.00;;;;;;5043644;28;20025;-50
2022/05/11 13:35:38;;;;;;;4.80;2.42;;;26.70;34.10;;;;;;5043536;28;20021;-48
2022/05/11 13:38:04;;;;;;;3.92;2.30;;;26.80;32.90;;;;;;5045671;28;20029;-48
2022/05/11 13:40:41;;;;;;;5.47;3.47;;;26.80;33.30;;;;;;5043833;28;20028;-48